Time;durP1;ratioP1;P1;durP2;ratioP2;P2;SDS_P1;SDS_P2;PMS_P1;PMS_P2;Temp;Humidity;BMP_temperature;BMP_pressure;BME280_temperature;BME280_humidity;BME280_pressure;Samples;Min_cycle;Max_cycle;Signal;HPM_P1;HPM_P2
2021/09/05 00:01:45;;;;;;;7.12;3.80;;;;;;;18.15;51.83;100044.22;4332106;33;33483;-87
2021/09/05 00:04:13;;;;;;;7.65;4.18;;;;;;;18.27;51.59;100043.87;4319849;33;33465;-87
2021/09/05 00:06:40;;;;;;;5.10;4.05;;;;;;;18.30;51.46;100047.34;4332275;33;34604;-87
2021/09/05 00:09:08;;;;;;;7.75;4.72;;;;;;;18.31;51.40;100049.91;4332080;33;34413;-87
2021/09/05 00:11:35;;;;;;;7.93;4.25;;;;;;;18.37;51.38;100056.78;4320032;33;33554;-87
2021/09/05 00:14:03;;;;;;;4.70;3.75;;;;;;;18.39;51.44;100054.97;4333150;33;34825;-87
2021/09/05 00:16:32;;;;;;;5.68;4.00;;;;;;;18.34;51.54;100057.75;4320037;33;34108;-87
2021/09/05 00:19:00;;;;;;;7.62;4.20;;;;;;;18.30;51.60;100063.13;4319767;33;33327;-88
2021/09/05 00:21:27;;;;;;;6.95;3.85;;;;;;;18.32;51.69;100058.69;4319742;33;34230;-88
2021/09/05 00:23:55;;;;;;;7.22;5.07;;;;;;;18.41;51.43;100077.72;4331823;33;33979;-87
2021/09/05 00:26:22;;;;;;;7.57;4.90;;;;;;;17.88;53.32;100086.16;4319595;33;34056;-87
2021/09/05 00:28:50;;;;;;;7.70;5.25;;;;;;;17.89;53.11;100090.53;4331847;33;34238;-87
2021/09/05 00:31:17;;;;;;;9.18;4.75;;;;;;;18.05;52.86;100092.75;4332832;33;34299;-87
2021/09/05 00:33:45;;;;;;;11.80;5.18;;;;;;;18.06;52.71;100086.59;4333189;33;34082;-87
2021/09/05 00:36:13;;;;;;;8.07;4.47;;;;;;;18.00;52.92;100075.31;4331730;33;35484;-87
2021/09/05 00:38:42;;;;;;;7.40;4.87;;;;;;;18.12;52.45;100088.16;4307858;33;34047;-88
2021/09/05 00:41:10;;;;;;;8.52;5.15;;;;;;;18.14;52.63;100089.88;4332143;33;34285;-87
2021/09/05 00:43:52;;;;;;;8.38;5.30;;;;;;;17.97;53.30;100093.84;4332935;33;34771;-87
2021/09/05 00:46:20;;;;;;;7.85;5.03;;;;;;;18.10;52.96;100095.25;4319794;33;34650;-87
2021/09/05 00:48:48;;;;;;;8.82;5.15;;;;;;;18.12;53.10;100102.22;4319552;33;34372;-87
2021/09/05 00:51:15;;;;;;;7.82;4.95;;;;;;;18.07;53.33;100104.09;4343931;33;33835;-87
2021/09/05 00:53:45;;;;;;;8.02;5.82;;;;;;;17.82;54.05;100110.88;4307577;33;33275;-87
2021/09/05 00:56:13;;;;;;;6.70;4.93;;;;;;;17.89;54.05;100112.47;4306803;33;34057;-87
2021/09/05 00:58:45;;;;;;;9.40;5.45;;;;;;;18.05;53.73;100111.16;4319693;33;34146;-87
2021/09/05 01:01:13;;;;;;;5.87;4.78;;;;;;;18.02;53.81;100107.72;4331680;33;33538;-87
2021/09/05 01:03:41;;;;;;;6.78;4.93;;;;;;;17.98;54.02;100109.59;4319784;33;34063;-87
2021/09/05 01:06:10;;;;;;;7.55;5.45;;;;;;;18.12;53.58;100107.47;4331763;33;35462;-87
2021/09/05 01:08:39;;;;;;;9.35;6.07;;;;;;;18.20;53.71;100117.81;4332979;33;34200;-87
2021/09/05 01:11:08;;;;;;;8.75;5.87;;;;;;;18.10;53.87;100119.81;4319572;33;34243;-87
2021/09/05 01:13:35;;;;;;;8.65;5.75;;;;;;;18.16;53.76;100124.91;4332916;33;34042;-87
2021/09/05 01:16:04;;;;;;;8.00;5.53;;;;;;;18.20;53.65;100121.31;4307479;33;33986;-87
2021/09/05 01:18:33;;;;;;;6.28;5.15;;;;;;;18.11;54.10;100124.16;4319307;33;34368;-87
2021/09/05 01:21:02;;;;;;;11.98;7.07;;;;;;;18.01;54.38;100125.31;4332655;33;34298;-87
2021/09/05 01:23:31;;;;;;;11.25;6.18;;;;;;;18.14;54.27;100129.34;4319308;33;33424;-87
2021/09/05 01:26:01;;;;;;;11.75;6.60;;;;;;;18.06;54.40;100128.69;4333250;33;35528;-87
2021/09/05 01:28:30;;;;;;;9.50;6.78;;;;;;;18.07;54.54;100130.41;4332092;33;34986;-87
2021/09/05 01:30:59;;;;;;;8.05;5.68;;;;;;;18.02;54.72;100127.03;4332234;33;33622;-87
2021/09/05 01:33:29;;;;;;;10.77;7.20;;;;;;;18.06;54.54;100133.97;4320261;33;33566;-87
2021/09/05 01:36:00;;;;;;;9.95;7.60;;;;;;;17.88;55.14;100136.16;4319344;33;35127;-87
2021/09/05 01:38:31;;;;;;;11.48;7.10;;;;;;;17.96;55.17;100137.72;4331718;33;34264;-87
2021/09/05 01:41:03;;;;;;;10.38;7.30;;;;;;;18.17;54.91;100142.44;4320062;33;33513;-87
2021/09/05 01:43:34;;;;;;;11.18;7.47;;;;;;;18.18;54.89;100148.56;4331652;33;34676;-87
2021/09/05 01:46:02;;;;;;;10.30;7.37;;;;;;;18.08;55.23;100153.22;4307147;33;34394;-87
2021/09/05 01:48:33;;;;;;;11.75;6.70;;;;;;;18.04;55.22;100148.06;4320006;33;34228;-87
2021/09/05 01:51:04;;;;;;;9.88;6.97;;;;;;;18.04;55.18;100155.97;4331536;33;33840;-87
2021/09/05 01:53:34;;;;;;;9.60;7.03;;;;;;;18.03;55.08;100154.22;4332836;33;34446;-87
2021/09/05 01:56:04;;;;;;;;;;;;;;;18.01;55.22;100146.38;4332576;33;35618;-87
2021/09/05 01:58:33;;;;;;;11.70;7.15;;;;;;;17.95;55.53;100156.16;4332496;33;34407;-87
2021/09/05 02:01:05;;;;;;;12.18;8.48;;;;;;;17.90;55.75;100150.16;4307789;33;32951;-87
2021/09/05 02:03:34;;;;;;;13.00;7.60;;;;;;;17.89;55.87;100146.66;4307433;33;34404;-87
2021/09/05 02:06:03;;;;;;;13.57;9.60;;;;;;;17.94;55.93;100157.94;4319210;33;34204;-87
2021/09/05 02:08:32;;;;;;;15.63;10.43;;;;;;;17.83;56.26;100157.31;4319004;33;33514;-87
2021/09/05 02:11:05;;;;;;;16.05;10.30;;;;;;;17.87;56.40;100147.59;4319102;33;32998;-87
2021/09/05 02:13:34;;;;;;;13.62;9.73;;;;;;;18.08;55.98;100155.84;4319214;33;34276;-87
2021/09/05 02:16:06;;;;;;;15.73;9.25;;;;;;;18.14;56.04;100152.16;4332107;33;34439;-87
2021/09/05 02:18:34;;;;;;;16.33;10.20;;;;;;;18.11;56.29;100152.28;4307087;33;33799;-87
2021/09/05 02:21:03;;;;;;;13.98;10.52;;;;;;;18.22;56.08;100156.34;4318689;33;33566;-87
2021/09/05 02:23:32;;;;;;;15.80;10.63;;;;;;;18.20;56.18;100152.91;4332476;33;34139;-87
2021/09/05 02:26:01;;;;;;;14.45;10.15;;;;;;;18.39;55.58;100165.59;4306737;33;33559;-87
2021/09/05 02:28:30;;;;;;;14.40;10.80;;;;;;;18.53;55.25;100160.84;4331040;33;34263;-87
2021/09/05 02:30:59;;;;;;;16.10;11.43;;;;;;;18.40;55.48;100164.69;4332043;33;33602;-87
2021/09/05 02:33:30;;;;;;;15.32;11.12;;;;;;;18.62;54.97;100163.22;4319275;33;34041;-87
2021/09/05 02:35:58;;;;;;;15.27;10.75;;;;;;;18.63;54.90;100170.25;4306904;33;34203;-87
2021/09/05 02:38:27;;;;;;;13.43;9.48;;;;;;;18.79;54.48;100164.50;4318972;33;34872;-87
2021/09/05 02:40:56;;;;;;;17.45;11.57;;;;;;;18.80;54.46;100166.22;4318768;33;34400;-87
2021/09/05 02:43:25;;;;;;;14.20;9.95;;;;;;;18.78;54.65;100167.16;4318436;33;33549;-87
2021/09/05 02:45:55;;;;;;;15.43;10.15;;;;;;;18.77;54.58;100170.72;4319143;33;34961;-87
2021/09/05 02:48:25;;;;;;;14.02;9.93;;;;;;;18.88;54.24;100169.50;4319065;33;34266;-87
2021/09/05 02:50:56;;;;;;;14.43;10.13;;;;;;;18.86;54.33;100170.47;4330803;33;34386;-87
2021/09/05 02:53:26;;;;;;;14.20;10.63;;;;;;;18.90;54.25;100170.34;4306377;33;33550;-87
2021/09/05 02:55:56;;;;;;;18.23;10.82;;;;;;;18.81;54.56;100172.34;4318297;33;34363;-87
2021/09/05 02:58:24;;;;;;;13.48;10.52;;;;;;;18.93;54.01;100169.37;4318268;33;34290;-87
2021/09/05 03:00:53;;;;;;;16.27;11.05;;;;;;;18.85;54.29;100163.47;4318426;33;33121;-87
2021/09/05 03:03:23;;;;;;;20.67;12.07;;;;;;;18.94;54.12;100168.50;4331593;33;34004;-87
2021/09/05 03:05:53;;;;;;;14.20;10.85;;;;;;;18.95;53.98;100170.19;4330542;33;34333;-87
2021/09/05 03:08:21;;;;;;;16.02;10.45;;;;;;;19.00;53.77;100170.06;4306255;33;34115;-87
2021/09/05 03:10:51;;;;;;;15.90;10.65;;;;;;;19.08;53.45;100168.97;4330651;33;33558;-87
2021/09/05 03:13:20;;;;;;;14.57;10.65;;;;;;;19.02;53.59;100177.03;4318252;33;32896;-87
2021/09/05 03:15:49;;;;;;;15.85;10.50;;;;;;;19.02;53.70;100166.47;4318269;33;35440;-87
2021/09/05 03:18:19;;;;;;;14.63;10.75;;;;;;;19.03;53.71;100173.50;4307383;33;34504;-87
2021/09/05 03:20:48;;;;;;;16.12;10.52;;;;;;;19.04;53.63;100183.13;4332599;33;34374;-87
2021/09/05 03:23:17;;;;;;;14.23;10.57;;;;;;;19.14;53.19;100187.22;4333658;33;33953;-87
2021/09/05 03:25:45;;;;;;;14.48;10.82;;;;;;;19.03;53.41;100180.53;4320392;33;34775;-87
2021/09/05 03:28:15;;;;;;;12.65;10.40;;;;;;;19.08;53.40;100184.78;4320401;33;34881;-87
2021/09/05 03:30:46;;;;;;;13.50;10.60;;;;;;;19.16;53.03;100190.66;4332552;33;33985;-87
2021/09/05 03:33:15;;;;;;;16.08;11.00;;;;;;;19.01;53.55;100190.25;4320155;33;34511;-87
2021/09/05 03:35:46;;;;;;;14.77;10.70;;;;;;;19.11;53.12;100189.94;4308347;33;34353;-87
2021/09/05 03:38:16;;;;;;;18.30;12.55;;;;;;;19.22;52.69;100187.88;4332413;33;34318;-87
2021/09/05 03:40:47;;;;;;;13.95;10.65;;;;;;;19.15;52.87;100183.69;4333527;33;33154;-87
2021/09/05 03:43:17;;;;;;;14.27;10.07;;;;;;;19.12;52.83;100182.91;4308360;33;34424;-87
2021/09/05 03:45:46;;;;;;;13.98;10.75;;;;;;;19.03;53.07;100194.59;4320187;33;35354;-87
2021/09/05 03:48:15;;;;;;;14.80;11.25;;;;;;;19.05;52.98;100187.50;4333408;33;34875;-87
2021/09/05 03:50:46;;;;;;;15.45;10.20;;;;;;;19.09;52.86;100191.75;4320093;33;33754;-87
2021/09/05 03:53:14;;;;;;;13.85;10.95;;;;;;;19.13;52.79;100188.16;4320346;33;33869;-87
2021/09/05 03:55:42;;;;;;;14.10;10.43;;;;;;;19.27;52.38;100195.66;4332027;33;34485;-87
2021/09/05 03:58:11;;;;;;;16.23;11.05;;;;;;;19.25;52.33;100200.97;4317477;33;34907;-87
2021/09/05 04:00:40;;;;;;;13.23;9.88;;;;;;;19.18;52.44;100202.06;4317541;33;33595;-87
2021/09/05 04:03:09;;;;;;;13.88;10.50;;;;;;;19.15;52.65;100202.16;4317417;33;33445;-87
2021/09/05 04:05:37;;;;;;;14.10;10.23;;;;;;;19.17;52.85;100208.22;4317532;33;34672;-87
2021/09/05 04:10:34;;;;;;;16.42;11.50;;;;;;;19.15;52.64;100209.19;4317473;33;34159;-87
2021/09/05 04:13:05;;;;;;;14.23;10.98;;;;;;;19.17;52.50;100210.00;4317553;33;33396;-87
2021/09/05 04:15:33;;;;;;;13.75;11.20;;;;;;;19.18;52.35;100209.97;4329356;33;34574;-87
2021/09/05 04:18:01;;;;;;;17.15;11.23;;;;;;;19.38;52.00;100215.56;4318457;33;34229;-87
2021/09/05 04:20:29;;;;;;;15.52;11.10;;;;;;;19.18;52.34;100215.25;4318429;33;34298;-87
2021/09/05 04:22:57;;;;;;;15.55;11.12;;;;;;;19.17;52.32;100215.28;4305510;33;34816;-87
2021/09/05 04:25:24;;;;;;;17.20;10.65;;;;;;;19.30;51.87;100224.56;4318446;33;36032;-87
2021/09/05 04:27:52;;;;;;;16.62;10.88;;;;;;;19.39;51.69;100217.28;4316986;33;34588;-87
2021/09/05 04:30:20;;;;;;;16.23;10.93;;;;;;;19.34;51.79;100227.09;4304437;33;32332;-87
2021/09/05 04:32:50;;;;;;;17.87;11.23;;;;;;;19.35;51.75;100231.44;4329252;33;33746;-87
2021/09/05 04:35:17;;;;;;;14.13;10.68;;;;;;;19.18;52.29;100228.44;4317486;33;34949;-87
2021/09/05 04:37:45;;;;;;;14.90;11.68;;;;;;;19.28;52.00;100236.94;4317396;33;34233;-87
2021/09/05 04:40:13;;;;;;;14.35;11.10;;;;;;;19.27;51.97;100240.47;4305304;33;33046;-87
2021/09/05 04:42:41;;;;;;;16.17;10.80;;;;;;;19.28;51.91;100237.78;4317880;33;33953;-85
2021/09/05 04:45:09;;;;;;;15.52;11.60;;;;;;;19.28;51.87;100237.78;4316257;33;33811;-85
2021/09/05 04:47:37;;;;;;;15.63;11.25;;;;;;;19.36;51.63;100243.75;4316268;33;33741;-85
2021/09/05 04:50:05;;;;;;;15.25;10.48;;;;;;;19.35;51.67;100239.34;4316051;33;34077;-85
2021/09/05 04:52:33;;;;;;;14.38;11.05;;;;;;;19.39;51.58;100245.44;4304254;33;32677;-85
2021/09/05 04:55:01;;;;;;;16.87;10.85;;;;;;;19.38;51.64;100247.22;4328168;33;34286;-85
2021/09/05 04:57:29;;;;;;;15.70;10.32;;;;;;;19.45;51.44;100247.88;4315629;33;34513;-84
2021/09/05 04:59:58;;;;;;;13.23;10.57;;;;;;;19.41;51.55;100244.50;4316037;33;33416;-85
2021/09/05 05:02:25;;;;;;;14.73;10.90;;;;;;;19.52;51.18;100250.31;4304149;33;34431;-85
2021/09/05 05:04:53;;;;;;;16.52;11.25;;;;;;;19.53;51.13;100254.69;4328038;33;35013;-85
2021/09/05 05:07:21;;;;;;;14.48;10.50;;;;;;;19.61;51.01;100253.59;4317076;33;34487;-85
2021/09/05 05:09:50;;;;;;;13.62;9.90;;;;;;;19.72;50.72;100260.28;4327790;33;33645;-85
2021/09/05 05:12:18;;;;;;;16.27;10.85;;;;;;;19.89;50.40;100262.41;4316653;33;34274;-85
2021/09/05 05:14:46;;;;;;;14.55;10.82;;;;;;;19.87;50.34;100270.34;4303557;33;34444;-87
2021/09/05 05:17:13;;;;;;;15.43;10.10;;;;;;;19.96;50.09;100272.72;4327399;33;34941;-86
2021/09/05 05:19:41;;;;;;;16.70;10.73;;;;;;;20.00;49.94;100265.56;4327730;33;33079;-87
2021/09/05 05:22:09;;;;;;;13.57;10.05;;;;;;;20.20;49.66;100271.09;4315172;33;34308;-86
2021/09/05 05:24:40;;;;;;;15.35;11.10;;;;;;;20.25;49.48;100270.03;4315195;33;34175;-86
2021/09/05 05:27:08;;;;;;;16.55;10.13;;;;;;;20.44;48.99;100277.41;4316171;33;34505;-85
2021/09/05 05:29:36;;;;;;;16.67;10.25;;;;;;;20.36;49.15;100277.66;4327168;33;33648;-85
2021/09/05 05:32:04;;;;;;;13.48;9.95;;;;;;;20.41;49.01;100275.72;4314862;33;34844;-85
2021/09/05 05:34:32;;;;;;;14.35;9.55;;;;;;;20.21;48.76;100280.72;4302539;33;34552;-86
2021/09/05 05:37:03;;;;;;;16.48;10.75;;;;;;;20.04;48.83;100283.06;4316156;33;34563;-85
2021/09/05 05:39:31;;;;;;;13.77;10.05;;;;;;;20.26;48.99;100292.06;4302082;33;36382;-86
2021/09/05 05:41:58;;;;;;;12.35;8.82;;;;;;;20.32;48.48;100285.72;4326642;33;33848;-86
2021/09/05 05:44:26;;;;;;;10.50;9.18;;;;;;;20.71;47.62;100281.75;4315929;33;33098;-85
2021/09/05 05:46:54;;;;;;;11.30;9.10;;;;;;;20.56;47.90;100287.56;4314287;33;33788;-85
2021/09/05 05:49:23;;;;;;;12.35;9.55;;;;;;;20.71;47.68;100285.25;4314203;33;32933;-85
2021/09/05 05:51:51;;;;;;;14.23;8.68;;;;;;;20.89;47.36;100283.78;4303276;33;34245;-88
2021/09/05 05:54:19;;;;;;;11.98;8.93;;;;;;;21.05;46.21;100284.13;4316330;33;33984;-86
2021/09/05 05:56:47;;;;;;;13.88;9.15;;;;;;;20.93;45.82;100280.97;4316840;33;33336;-87
2021/09/05 05:59:14;;;;;;;12.07;8.93;;;;;;;21.16;45.75;100281.97;4304960;33;34027;-86
2021/09/05 06:01:42;;;;;;;13.00;9.38;;;;;;;21.21;45.21;100293.25;4317844;33;34137;-86
2021/09/05 06:04:10;;;;;;;11.18;8.55;;;;;;;21.18;45.02;100294.22;4306371;33;34008;-87
2021/09/05 06:06:39;;;;;;;12.98;8.35;;;;;;;20.94;44.64;100293.25;4331904;33;34538;-86
2021/09/05 06:09:07;;;;;;;12.48;8.45;;;;;;;21.22;44.19;100302.91;4318655;33;33014;-86
2021/09/05 06:11:35;;;;;;;10.90;7.87;;;;;;;21.22;44.15;100297.63;4318605;33;33988;-86
2021/09/05 06:14:03;;;;;;;12.27;8.00;;;;;;;21.34;44.45;100305.13;4294413;33;35023;-88
2021/09/05 06:16:31;;;;;;;14.05;8.48;;;;;;;21.54;44.04;100300.81;4305756;33;33676;-86
2021/09/05 06:19:00;;;;;;;11.20;8.27;;;;;;;21.51;43.70;100302.75;4329634;33;33598;-87
2021/09/05 06:21:28;;;;;;;12.00;8.45;;;;;;;21.91;42.64;100312.72;4305442;33;33560;-85
2021/09/05 06:23:56;;;;;;;11.20;7.97;;;;;;;21.81;42.63;100312.19;4331323;33;35019;-87
2021/09/05 06:26:24;;;;;;;11.73;8.25;;;;;;;21.85;42.52;100312.94;4306242;33;34035;-87
2021/09/05 06:28:52;;;;;;;12.15;8.43;;;;;;;21.97;42.20;100318.66;4330837;33;33229;-86
2021/09/05 06:31:20;;;;;;;9.70;7.75;;;;;;;22.14;41.65;100321.50;4329182;33;33920;-86
2021/09/05 06:33:48;;;;;;;12.00;7.60;;;;;;;22.08;41.84;100319.09;4317002;33;34936;-86
2021/09/05 06:36:15;;;;;;;11.00;7.90;;;;;;;22.19;41.29;100319.53;4316524;33;33377;-87
2021/09/05 06:38:43;;;;;;;10.32;8.00;;;;;;;22.06;41.31;100326.22;4304690;33;32795;-86
2021/09/05 06:41:11;;;;;;;13.10;8.23;;;;;;;21.97;41.73;100325.72;4305285;33;33669;-86
2021/09/05 06:43:38;;;;;;;11.63;8.18;;;;;;;22.01;41.90;100322.88;4317329;33;34968;-86
2021/09/05 06:46:06;;;;;;;16.02;7.55;;;;;;;22.21;41.90;100316.81;4317276;33;34172;-85
2021/09/05 06:48:45;;;;;;;14.75;8.23;;;;;;;22.55;40.74;100326.94;4316463;33;32497;-85
2021/09/05 06:51:13;;;;;;;12.02;8.07;;;;;;;22.53;40.41;100328.81;4317183;33;34514;-87
2021/09/05 06:53:41;;;;;;;13.75;7.70;;;;;;;22.55;40.23;100326.94;4317995;33;34926;-88
2021/09/05 06:56:09;;;;;;;11.18;7.72;;;;;;;22.36;40.27;100328.59;4306106;33;35174;-88
2021/09/05 06:58:38;;;;;;;10.57;6.78;;;;;;;22.40;39.91;100338.16;4306855;33;34173;-86
2021/09/05 07:01:06;;;;;;;10.50;6.93;;;;;;;22.46;39.14;100337.91;4319099;33;33416;-87
2021/09/05 07:03:35;;;;;;;11.12;6.93;;;;;;;22.45;39.75;100336.19;4331360;33;34708;-88
2021/09/05 07:06:05;;;;;;;10.50;6.32;;;;;;;22.61;39.23;100339.97;4318466;33;34607;-88
2021/09/05 07:08:32;;;;;;;9.25;6.20;;;;;;;22.73;38.46;100332.37;4319687;33;33053;-87
2021/09/05 07:11:00;;;;;;;8.25;6.20;;;;;;;22.71;38.36;100338.66;4331149;33;33437;-86
2021/09/05 07:13:28;;;;;;;8.25;5.85;;;;;;;22.95;37.47;100335.00;4330905;33;34627;-86
2021/09/05 07:15:56;;;;;;;7.87;6.00;;;;;;;22.88;36.72;100341.50;4317892;33;33926;-87
2021/09/05 07:18:24;;;;;;;7.55;5.65;;;;;;;23.15;36.77;100343.00;4318147;33;33063;-86
2021/09/05 07:20:51;;;;;;;9.77;5.95;;;;;;;23.34;37.13;100346.53;4317029;33;34539;-86
2021/09/05 07:23:20;;;;;;;6.60;5.32;;;;;;;23.32;35.18;100343.09;4331161;33;35217;-86
2021/09/05 07:25:48;;;;;;;7.78;5.65;;;;;;;23.16;35.85;100351.78;4318113;33;34736;-83
2021/09/05 07:28:16;;;;;;;8.38;5.32;;;;;;;23.16;34.10;100352.66;4331116;33;33493;-87
2021/09/05 07:30:44;;;;;;;8.77;4.82;;;;;;;23.41;33.56;100353.38;4319861;33;33627;-85
2021/09/05 07:33:13;;;;;;;6.12;4.82;;;;;;;23.22;32.91;100357.72;4319183;33;35116;-86
2021/09/05 07:35:41;;;;;;;7.60;5.12;;;;;;;23.23;32.15;100363.88;4331477;33;34427;-85
2021/09/05 07:38:09;;;;;;;10.40;5.35;;;;;;;23.29;32.06;100364.50;4319407;33;32932;-87
2021/09/05 07:40:37;;;;;;;6.57;4.82;;;;;;;22.99;32.56;100363.13;4319094;33;34178;-86
2021/09/05 07:43:04;;;;;;;6.75;4.97;;;;;;;23.29;31.69;100367.16;4330421;33;34557;-87
2021/09/05 07:45:32;;;;;;;8.82;5.40;;;;;;;23.40;32.48;100364.03;4306264;33;34026;-87
2021/09/05 07:48:01;;;;;;;6.28;4.60;;;;;;;23.61;32.19;100371.06;4329915;33;33815;-87
2021/09/05 07:50:28;;;;;;;9.75;4.87;;;;;;;23.71;31.94;100374.16;4317737;33;33312;-83
2021/09/05 07:52:57;;;;;;;9.55;5.28;;;;;;;23.52;32.12;100377.66;4331208;33;35691;-88
2021/09/05 07:55:25;;;;;;;6.80;5.03;;;;;;;23.64;31.27;100378.88;4306275;33;34559;-85
2021/09/05 07:57:52;;;;;;;7.47;5.30;;;;;;;23.62;31.25;100382.53;4304639;33;33046;-88
2021/09/05 08:00:21;;;;;;;7.97;4.85;;;;;;;23.88;31.72;100387.56;4304697;33;34528;-88
2021/09/05 08:02:50;;;;;;;8.57;5.40;;;;;;;23.92;31.63;100379.37;4328892;33;34727;-87
2021/09/05 08:05:18;;;;;;;8.55;4.70;;;;;;;23.54;31.35;100385.53;4316425;33;33691;-87
2021/09/05 08:07:46;;;;;;;8.25;5.10;;;;;;;23.58;31.22;100394.25;4329499;33;34136;-86
2021/09/05 08:10:14;;;;;;;7.78;5.53;;;;;;;23.46;31.14;100391.16;4305218;33;33918;-88
2021/09/05 08:12:42;;;;;;;6.47;4.93;;;;;;;23.66;31.20;100386.78;4305579;33;33995;-87
2021/09/05 08:15:10;;;;;;;9.85;4.78;;;;;;;23.77;31.65;100392.50;4328758;33;34566;-86
2021/09/05 08:17:40;;;;;;;6.97;4.97;;;;;;;23.58;30.99;100402.22;4317449;33;34053;-88
2021/09/05 08:20:09;;;;;;;6.50;4.87;;;;;;;23.61;30.98;100394.09;4318196;33;34225;-88
2021/09/05 08:22:39;;;;;;;8.98;4.90;;;;;;;23.58;31.15;100394.25;4330033;33;35365;-88
2021/09/05 08:25:08;;;;;;;7.95;4.47;;;;;;;23.86;30.91;100397.41;4318355;33;34403;-87
2021/09/05 08:27:36;;;;;;;8.60;5.05;;;;;;;24.07;31.47;100394.66;4329144;33;33561;-88
2021/09/05 08:30:05;;;;;;;6.32;4.20;;;;;;;23.91;31.26;100396.25;4316938;33;34517;-88
2021/09/05 08:32:34;;;;;;;9.52;4.50;;;;;;;23.98;30.58;100411.00;4305315;33;35024;-88
2021/09/05 08:35:03;;;;;;;7.90;4.85;;;;;;;23.92;30.52;100397.97;4341826;33;34549;-88
2021/09/05 08:37:31;;;;;;;7.53;4.50;;;;;;;24.16;31.27;100404.00;4316705;33;33323;-89
2021/09/05 08:40:00;;;;;;;7.37;5.35;;;;;;;24.46;30.67;100407.03;4316691;33;33697;-86
2021/09/05 08:42:30;;;;;;;7.60;5.22;;;;;;;24.40;30.04;100408.16;4329926;33;34847;-88
2021/09/05 08:44:59;;;;;;;7.22;5.22;;;;;;;24.32;30.34;100412.97;4330264;33;34300;-87
2021/09/05 08:47:31;;;;;;;9.43;5.43;;;;;;;24.50;30.07;100413.91;4305313;33;33119;-87
2021/09/05 08:50:01;;;;;;;7.82;4.62;;;;;;;24.58;30.59;100417.09;4328806;33;33777;-88
2021/09/05 08:52:30;;;;;;;7.97;4.72;;;;;;;24.62;30.77;100414.19;4329493;33;35506;-86
2021/09/05 08:54:57;;;;;;;6.50;5.07;;;;;;;24.74;30.81;100420.72;4317181;33;33553;-87
2021/09/05 08:57:26;;;;;;;9.20;5.87;;;;;;;24.93;30.54;100418.06;4302770;33;33025;-87
2021/09/05 08:59:54;;;;;;;9.20;5.45;;;;;;;24.79;30.51;100414.25;4314276;33;34492;-88
2021/09/05 09:02:21;;;;;;;8.45;4.82;;;;;;;24.75;30.76;100425.09;4314925;33;33926;-88
2021/09/05 09:04:53;;;;;;;8.50;5.97;;;;;;;24.61;30.64;100415.12;4302401;33;34142;-87
2021/09/05 09:07:22;;;;;;;9.05;5.20;;;;;;;24.98;30.86;100422.22;4328146;33;34304;-88
2021/09/05 09:10:01;;;;;;;8.38;5.43;;;;;;;25.08;30.86;100422.63;4289261;33;34286;-88
2021/09/05 09:12:50;;;;;;;7.22;4.62;;;;;;;24.95;29.78;100416.19;4325171;33;34705;-87
2021/09/05 09:15:31;;;;;;;6.53;5.07;;;;;;;24.99;29.99;100420.41;4314388;33;34593;-86
2021/09/05 09:18:00;;;;;;;8.32;4.90;;;;;;;24.87;30.12;100406.78;4314910;33;33755;-87
2021/09/05 09:20:43;;;;;;;7.43;4.97;;;;;;;25.01;29.74;100422.03;4314019;33;35298;-86
2021/09/05 09:23:12;;;;;;;8.48;5.43;;;;;;;24.91;30.24;100417.28;4315537;33;35558;-88
2021/09/05 09:26:08;;;;;;;7.65;5.20;;;;;;;24.97;30.12;100419.63;4326716;33;33545;-87
2021/09/05 09:28:41;;;;;;;7.37;4.93;;;;;;;25.07;29.53;100419.09;4301588;33;33018;-86
2021/09/05 09:31:13;;;;;;;6.57;4.40;;;;;;;24.66;29.97;100423.75;4326146;33;34177;-88
2021/09/05 09:33:46;;;;;;;7.10;5.10;;;;;;;25.03;29.68;100412.19;4315494;33;35701;-88
2021/09/05 09:36:26;;;;;;;8.55;4.87;;;;;;;25.17;29.93;100409.72;4315338;33;34313;-87
2021/09/05 09:38:57;;;;;;;7.95;5.20;;;;;;;25.26;29.76;100419.91;4314780;33;34812;-88
2021/09/05 09:41:29;;;;;;;8.20;4.95;;;;;;;25.42;29.06;100409.31;4315078;33;35418;-87
2021/09/05 09:43:58;;;;;;;5.57;4.20;;;;;;;25.39;29.97;100406.81;4315025;33;35139;-88
2021/09/05 09:46:31;;;;;;;8.52;5.03;;;;;;;25.52;29.25;100405.28;4313731;33;34216;-88
2021/09/05 09:49:05;;;;;;;7.78;4.68;;;;;;;25.58;29.18;100409.44;4302788;33;33950;-87
2021/09/05 09:51:34;;;;;;;8.85;5.18;;;;;;;25.55;29.12;100410.47;4315401;33;34394;-87
2021/09/05 09:54:02;;;;;;;8.10;4.85;;;;;;;25.55;29.97;100405.97;4313648;33;34963;-88
2021/09/05 09:56:30;;;;;;;7.03;4.87;;;;;;;25.40;29.64;100406.75;4323967;33;33951;-87
2021/09/05 09:59:00;;;;;;;8.05;4.82;;;;;;;25.57;29.20;100405.03;4312690;33;34272;-89
2021/09/05 10:01:28;;;;;;;6.30;4.85;;;;;;;25.65;29.49;100403.69;4301958;33;33204;-87
2021/09/05 10:03:58;;;;;;;6.50;4.68;;;;;;;25.76;29.31;100406.66;4314451;33;34222;-88
2021/09/05 10:06:28;;;;;;;5.37;4.28;;;;;;;25.88;28.94;100403.34;4326148;33;34509;-88
2021/09/05 10:09:04;;;;;;;6.70;4.65;;;;;;;26.03;29.42;100407.84;4313012;33;32269;-87
2021/09/05 10:11:34;;;;;;;6.43;4.65;;;;;;;26.08;28.71;100394.25;4311623;33;33627;-87
2021/09/05 10:14:02;;;;;;;7.90;5.30;;;;;;;25.77;28.77;100400.38;4323274;33;34402;-87
2021/09/05 10:16:30;;;;;;;7.78;5.30;;;;;;;25.82;28.86;100398.34;4311582;33;33877;-87
2021/09/05 10:19:02;;;;;;;5.82;4.60;;;;;;;25.92;28.60;100399.56;4311491;33;33217;-87
2021/09/05 10:21:30;;;;;;;6.75;4.93;;;;;;;26.00;28.50;100402.69;4299825;33;33818;-87
2021/09/05 10:23:58;;;;;;;7.45;4.75;;;;;;;25.94;28.41;100394.16;4302051;33;35235;-87
2021/09/05 10:26:26;;;;;;;10.23;4.57;;;;;;;25.98;28.25;100391.22;4314313;33;34550;-87
2021/09/05 10:28:58;;;;;;;6.93;5.18;;;;;;;25.77;29.27;100389.72;4302866;33;33776;-87
2021/09/05 10:31:31;;;;;;;6.75;4.93;;;;;;;25.93;28.69;100390.66;4315688;33;33590;-87
2021/09/05 10:33:59;;;;;;;8.48;5.03;;;;;;;26.16;28.00;100392.94;4316911;33;34944;-86
2021/09/05 10:36:27;;;;;;;7.35;5.10;;;;;;;26.28;28.44;100395.88;4315052;33;35166;-87
2021/09/05 10:39:06;;;;;;;7.78;5.25;;;;;;;26.16;28.20;100392.09;4315654;33;34294;-87
2021/09/05 10:41:47;;;;;;;7.35;5.22;;;;;;;26.23;28.05;100392.59;4315577;33;34610;-88
2021/09/05 10:44:14;;;;;;;6.85;5.30;;;;;;;26.50;28.17;100396.41;4303130;33;35650;-87
2021/09/05 10:46:47;;;;;;;8.02;4.82;;;;;;;26.51;28.77;100392.78;4315406;33;34225;-87
2021/09/05 10:49:14;;;;;;;;;;;;;;;26.55;28.34;100391.69;4303363;33;34547;-87
2021/09/05 10:51:47;;;;;;;7.32;5.18;;;;;;;26.76;27.93;100387.81;4315337;33;33603;-86
2021/09/05 10:54:24;;;;;;;8.40;5.10;;;;;;;26.70;27.73;100393.47;4315927;33;34580;-87
2021/09/05 10:56:53;;;;;;;8.38;5.47;;;;;;;26.61;27.48;100396.66;4317116;33;34601;-88
2021/09/05 10:59:23;;;;;;;6.30;4.93;;;;;;;26.76;26.84;100393.16;4306392;33;33178;-87
2021/09/05 11:01:51;;;;;;;6.32;4.80;;;;;;;26.93;27.29;100390.38;4305696;33;34299;-88
2021/09/05 11:04:22;;;;;;;6.40;4.55;;;;;;;26.63;27.72;100387.62;4317382;33;34179;-87
2021/09/05 11:07:01;;;;;;;6.78;4.62;;;;;;;26.74;26.97;100395.88;4305629;33;33650;-87
2021/09/05 11:09:29;;;;;;;6.12;5.03;;;;;;;26.60;27.79;100393.13;4318102;33;32969;-87
2021/09/05 11:11:58;;;;;;;7.75;4.68;;;;;;;26.82;27.43;100377.66;4330016;33;35053;-87
2021/09/05 11:14:34;;;;;;;6.35;4.60;;;;;;;26.89;28.00;100383.50;4330782;33;35595;-86
2021/09/05 11:17:10;;;;;;;6.20;4.60;;;;;;;26.90;27.63;100382.56;4317222;33;34685;-87
2021/09/05 11:19:44;;;;;;;6.93;4.62;;;;;;;26.91;26.97;100386.91;4317787;33;33519;-88
2021/09/05 11:22:15;;;;;;;9.15;4.45;;;;;;;27.08;27.25;100384.12;4330750;33;33769;-88
2021/09/05 11:24:44;;;;;;;7.35;5.15;;;;;;;27.04;27.02;100384.41;4317276;33;33906;-87
2021/09/05 11:27:14;;;;;;;6.53;4.68;;;;;;;27.05;27.40;100386.13;4317523;33;34368;-88
2021/09/05 11:29:42;;;;;;;6.93;4.80;;;;;;;27.20;26.87;100385.22;4317161;33;33242;-87
2021/09/05 11:32:12;;;;;;;7.03;5.00;;;;;;;27.20;27.13;100375.41;4330760;33;34942;-88